sensor_id;sensor_type;location;lat;lon;timestamp;temperature;humidity
23471;DHT22;11908;50.806;4.424;2023-04-16T00:01:38;8.70;99.90
23471;DHT22;11908;50.806;4.424;2023-04-16T00:04:04;8.60;99.90
23471;DHT22;11908;50.806;4.424;2023-04-16T00:06:29;8.60;99.90
23471;DHT22;11908;50.806;4.424;2023-04-16T00:08:56;8.60;99.90
23471;DHT22;11908;50.806;4.424;2023-04-16T00:11:22;8.60;99.90
23471;DHT22;11908;50.806;4.424;2023-04-16T00:13:48;8.70;99.90
23471;DHT22;11908;50.806;4.424;2023-04-16T00:16:14;8.80;99.90
23471;DHT22;11908;50.806;4.424;2023-04-16T00:18:39;8.80;99.90
23471;DHT22;11908;50.806;4.424;2023-04-16T00:21:06;8.80;99.90
23471;DHT22;11908;50.806;4.424;2023-04-16T00:23:32;8.90;99.90
23471;DHT22;11908;50.806;4.424;2023-04-16T00:25:58;9.00;99.90
23471;DHT22;11908;50.806;4.424;2023-04-16T00:28:26;8.90;99.90
23471;DHT22;11908;50.806;4.424;2023-04-16T00:30:53;8.80;99.90
23471;DHT22;11908;50.806;4.424;2023-04-16T00:33:19;8.90;99.90
23471;DHT22;11908;50.806;4.424;2023-04-16T00:35:47;8.90;99.90
23471;DHT22;11908;50.806;4.424;2023-04-16T00:38:13;8.80;99.90
23471;DHT22;11908;50.806;4.424;2023-04-16T00:40:39;8.80;99.90
23471;DHT22;11908;50.806;4.424;2023-04-16T00:43:05;8.90;99.90
23471;DHT22;11908;50.806;4.424;2023-04-16T00:45:31;8.90;99.90
23471;DHT22;11908;50.806;4.424;2023-04-16T00:47:57;9.00;99.90
23471;DHT22;11908;50.806;4.424;2023-04-16T00:50:23;9.00;99.90
23471;DHT22;11908;50.806;4.424;2023-04-16T00:52:49;8.90;99.90
23471;DHT22;11908;50.806;4.424;2023-04-16T00:55:15;8.90;99.90
23471;DHT22;11908;50.806;4.424;2023-04-16T00:57:44;9.00;99.90
23471;DHT22;11908;50.806;4.424;2023-04-16T01:00:10;9.10;99.90
23471;DHT22;11908;50.806;4.424;2023-04-16T01:02:36;9.00;99.90
23471;DHT22;11908;50.806;4.424;2023-04-16T01:05:03;9.10;99.90
23471;DHT22;11908;50.806;4.424;2023-04-16T01:07:29;9.00;99.90
23471;DHT22;11908;50.806;4.424;2023-04-16T01:09:55;9.00;99.90
23471;DHT22;11908;50.806;4.424;2023-04-16T01:12:21;9.00;99.90
23471;DHT22;11908;50.806;4.424;2023-04-16T01:14:47;9.00;99.90
23471;DHT22;11908;50.806;4.424;2023-04-16T01:17:13;9.10;99.90
23471;DHT22;11908;50.806;4.424;2023-04-16T01:19:38;9.20;99.90
23471;DHT22;11908;50.806;4.424;2023-04-16T01:22:04;9.20;99.90
23471;DHT22;11908;50.806;4.424;2023-04-16T01:24:30;9.10;99.90
23471;DHT22;11908;50.806;4.424;2023-04-16T01:26:59;9.20;99.90
23471;DHT22;11908;50.806;4.424;2023-04-16T01:29:25;9.20;99.90
23471;DHT22;11908;50.806;4.424;2023-04-16T01:31:51;9.20;99.90
23471;DHT22;11908;50.806;4.424;2023-04-16T01:34:17;9.20;99.90
23471;DHT22;11908;50.806;4.424;2023-04-16T01:36:43;9.20;99.90
23471;DHT22;11908;50.806;4.424;2023-04-16T01:39:09;9.10;99.90
23471;DHT22;11908;50.806;4.424;2023-04-16T01:41:38;9.00;99.90
23471;DHT22;11908;50.806;4.424;2023-04-16T01:44:04;9.00;99.90
23471;DHT22;11908;50.806;4.424;2023-04-16T01:46:31;9.00;99.90
23471;DHT22;11908;50.806;4.424;2023-04-16T01:48:57;9.00;99.90
23471;DHT22;11908;50.806;4.424;2023-04-16T01:51:23;9.00;99.90
23471;DHT22;11908;50.806;4.424;2023-04-16T01:53:50;8.90;99.90
23471;DHT22;11908;50.806;4.424;2023-04-16T01:56:16;9.00;99.90
23471;DHT22;11908;50.806;4.424;2023-04-16T01:58:41;9.00;99.90
23471;DHT22;11908;50.806;4.424;2023-04-16T02:01:08;9.00;99.90
23471;DHT22;11908;50.806;4.424;2023-04-16T02:03:33;9.00;99.90
23471;DHT22;11908;50.806;4.424;2023-04-16T02:05:59;8.90;99.90
23471;DHT22;11908;50.806;4.424;2023-04-16T02:08:26;8.90;99.90
23471;DHT22;11908;50.806;4.424;2023-04-16T02:10:52;8.90;99.90
23471;DHT22;11908;50.806;4.424;2023-04-16T02:13:17;9.00;99.90
23471;DHT22;11908;50.806;4.424;2023-04-16T02:15:49;9.10;99.90
23471;DHT22;11908;50.806;4.424;2023-04-16T02:18:15;9.10;99.90
23471;DHT22;11908;50.806;4.424;2023-04-16T02:20:42;9.10;99.90
23471;DHT22;11908;50.806;4.424;2023-04-16T02:23:09;9.10;99.90
23471;DHT22;11908;50.806;4.424;2023-04-16T02:25:42;9.10;99.90
23471;DHT22;11908;50.806;4.424;2023-04-16T02:28:09;9.10;99.90
23471;DHT22;11908;50.806;4.424;2023-04-16T02:30:35;9.10;99.90
23471;DHT22;11908;50.806;4.424;2023-04-16T02:33:06;9.10;99.90
23471;DHT22;11908;50.806;4.424;2023-04-16T02:35:35;9.10;99.90
23471;DHT22;11908;50.806;4.424;2023-04-16T02:38:02;9.00;99.90
23471;DHT22;11908;50.806;4.424;2023-04-16T02:40:29;9.00;99.90
23471;DHT22;11908;50.806;4.424;2023-04-16T02:42:54;9.00;99.90
23471;DHT22;11908;50.806;4.424;2023-04-16T02:45:21;9.00;99.90
23471;DHT22;11908;50.806;4.424;2023-04-16T02:47:47;9.00;99.90
23471;DHT22;11908;50.806;4.424;2023-04-16T02:50:13;9.00;99.90
23471;DHT22;11908;50.806;4.424;2023-04-16T02:52:39;9.00;99.90
23471;DHT22;11908;50.806;4.424;2023-04-16T02:55:05;9.10;99.90
23471;DHT22;11908;50.806;4.424;2023-04-16T02:57:31;9.20;99.90
23471;DHT22;11908;50.806;4.424;2023-04-16T02:59:57;9.10;99.90
23471;DHT22;11908;50.806;4.424;2023-04-16T03:02:23;9.00;99.90
23471;DHT22;11908;50.806;4.424;2023-04-16T03:04:48;9.00;99.90
23471;DHT22;11908;50.806;4.424;2023-04-16T03:07:14;9.00;99.90
23471;DHT22;11908;50.806;4.424;2023-04-16T03:09:40;9.00;99.90
23471;DHT22;11908;50.806;4.424;2023-04-16T03:12:06;9.00;99.90
23471;DHT22;11908;50.806;4.424;2023-04-16T03:14:31;9.10;99.90
23471;DHT22;11908;50.806;4.424;2023-04-16T03:16:57;9.10;99.90
23471;DHT22;11908;50.806;4.424;2023-04-16T03:19:23;9.20;99.90
23471;DHT22;11908;50.806;4.424;2023-04-16T03:21:49;9.30;99.90
23471;DHT22;11908;50.806;4.424;2023-04-16T03:24:14;9.30;99.90
23471;DHT22;11908;50.806;4.424;2023-04-16T03:26:40;9.30;99.90
23471;DHT22;11908;50.806;4.424;2023-04-16T03:29:06;9.30;99.90
23471;DHT22;11908;50.806;4.424;2023-04-16T03:31:32;9.30;99.90
23471;DHT22;11908;50.806;4.424;2023-04-16T03:33:57;9.30;99.90
23471;DHT22;11908;50.806;4.424;2023-04-16T03:36:23;9.40;99.90
23471;DHT22;11908;50.806;4.424;2023-04-16T03:38:49;9.30;99.90
23471;DHT22;11908;50.806;4.424;2023-04-16T03:41:15;9.30;99.90
23471;DHT22;11908;50.806;4.424;2023-04-16T03:43:41;9.30;99.90
23471;DHT22;11908;50.806;4.424;2023-04-16T03:46:07;9.30;99.90
23471;DHT22;11908;50.806;4.424;2023-04-16T03:48:32;9.30;99.90
23471;DHT22;11908;50.806;4.424;2023-04-16T03:50:58;9.20;99.90
23471;DHT22;11908;50.806;4.424;2023-04-16T03:53:24;9.10;99.90
23471;DHT22;11908;50.806;4.424;2023-04-16T03:55:50;9.10;99.90
23471;DHT22;11908;50.806;4.424;2023-04-16T03:58:16;9.00;99.90
23471;DHT22;11908;50.806;4.424;2023-04-16T04:00:42;8.90;99.90
23471;DHT22;11908;50.806;4.424;2023-04-16T04:03:11;8.80;99.90
23471;DHT22;11908;50.806;4.424;2023-04-16T04:05:38;8.70;99.90
23471;DHT22;11908;50.806;4.424;2023-04-16T04:08:04;8.80;99.90
23471;DHT22;11908;50.806;4.424;2023-04-16T04:10:34;8.70;99.90
23471;DHT22;11908;50.806;4.424;2023-04-16T04:13:04;8.70;99.90
23471;DHT22;11908;50.806;4.424;2023-04-16T04:15:30;8.70;99.90
23471;DHT22;11908;50.806;4.424;2023-04-16T04:17:56;8.90;99.90
23471;DHT22;11908;50.806;4.424;2023-04-16T04:20:23;8.80;99.90
23471;DHT22;11908;50.806;4.424;2023-04-16T04:22:49;8.70;99.90
23471;DHT22;11908;50.806;4.424;2023-04-16T04:25:16;8.70;99.90
23471;DHT22;11908;50.806;4.424;2023-04-16T04:27:41;8.70;99.90
23471;DHT22;11908;50.806;4.424;2023-04-16T04:30:07;8.70;99.90
23471;DHT22;11908;50.806;4.424;2023-04-16T04:32:33;8.70;99.90
23471;DHT22;11908;50.806;4.424;2023-04-16T04:35:00;8.70;99.90
23471;DHT22;11908;50.806;4.424;2023-04-16T04:37:26;8.90;99.90
23471;DHT22;11908;50.806;4.424;2023-04-16T04:39:52;8.90;99.90
23471;DHT22;11908;50.806;4.424;2023-04-16T04:42:18;8.80;99.90
23471;DHT22;11908;50.806;4.424;2023-04-16T04:44:44;8.80;99.90
23471;DHT22;11908;50.806;4.424;2023-04-16T04:47:10;8.70;99.90
23471;DHT22;11908;50.806;4.424;2023-04-16T04:49:36;8.70;99.90
23471;DHT22;11908;50.806;4.424;2023-04-16T04:52:02;8.60;99.90
23471;DHT22;11908;50.806;4.424;2023-04-16T04:54:29;8.60;99.90
23471;DHT22;11908;50.806;4.424;2023-04-16T04:56:55;8.60;99.90
23471;DHT22;11908;50.806;4.424;2023-04-16T04:59:21;8.60;99.90
23471;DHT22;11908;50.806;4.424;2023-04-16T05:01:47;8.70;99.90
23471;DHT22;11908;50.806;4.424;2023-04-16T05:04:13;8.70;99.90
23471;DHT22;11908;50.806;4.424;2023-04-16T05:06:39;8.70;99.90
23471;DHT22;11908;50.806;4.424;2023-04-16T05:09:05;8.80;99.90
23471;DHT22;11908;50.806;4.424;2023-04-16T05:11:32;8.70;99.90
23471;DHT22;11908;50.806;4.424;2023-04-16T05:13:58;8.70;99.90
23471;DHT22;11908;50.806;4.424;2023-04-16T05:16:24;8.70;99.90
23471;DHT22;11908;50.806;4.424;2023-04-16T05:18:49;8.60;99.90
23471;DHT22;11908;50.806;4.424;2023-04-16T05:21:15;8.70;99.90
23471;DHT22;11908;50.806;4.424;2023-04-16T05:23:41;8.70;99.90
23471;DHT22;11908;50.806;4.424;2023-04-16T05:26:06;8.80;99.90
23471;DHT22;11908;50.806;4.424;2023-04-16T05:28:32;8.90;99.90
23471;DHT22;11908;50.806;4.424;2023-04-16T05:30:58;8.90;99.90
23471;DHT22;11908;50.806;4.424;2023-04-16T05:33:23;8.90;99.90
23471;DHT22;11908;50.806;4.424;2023-04-16T05:35:49;8.80;99.90
23471;DHT22;11908;50.806;4.424;2023-04-16T05:38:15;8.80;99.90
23471;DHT22;11908;50.806;4.424;2023-04-16T05:40:41;8.90;99.90
23471;DHT22;11908;50.806;4.424;2023-04-16T05:43:06;8.90;99.90
23471;DHT22;11908;50.806;4.424;2023-04-16T05:45:32;8.90;99.90
23471;DHT22;11908;50.806;4.424;2023-04-16T05:48:04;8.90;99.90
23471;DHT22;11908;50.806;4.424;2023-04-16T05:50:30;8.90;99.90
23471;DHT22;11908;50.806;4.424;2023-04-16T05:52:55;8.90;99.90
23471;DHT22;11908;50.806;4.424;2023-04-16T05:55:21;8.90;99.90
23471;DHT22;11908;50.806;4.424;2023-04-16T05:57:46;9.00;99.90
23471;DHT22;11908;50.806;4.424;2023-04-16T06:00:12;9.00;99.90
23471;DHT22;11908;50.806;4.424;2023-04-16T06:02:38;8.90;99.90
23471;DHT22;11908;50.806;4.424;2023-04-16T06:05:04;9.00;99.90
23471;DHT22;11908;50.806;4.424;2023-04-16T06:07:29;9.10;99.90
23471;DHT22;11908;50.806;4.424;2023-04-16T06:09:55;9.00;99.90
23471;DHT22;11908;50.806;4.424;2023-04-16T06:12:21;9.00;99.90
23471;DHT22;11908;50.806;4.424;2023-04-16T06:14:46;9.00;99.90
23471;DHT22;11908;50.806;4.424;2023-04-16T06:17:12;9.00;99.90
23471;DHT22;11908;50.806;4.424;2023-04-16T06:19:38;8.90;99.90
23471;DHT22;11908;50.806;4.424;2023-04-16T06:22:03;8.80;99.90
23471;DHT22;11908;50.806;4.424;2023-04-16T06:24:30;8.90;99.90
23471;DHT22;11908;50.806;4.424;2023-04-16T06:26:56;8.90;99.90
23471;DHT22;11908;50.806;4.424;2023-04-16T06:29:22;8.90;99.90
23471;DHT22;11908;50.806;4.424;2023-04-16T06:31:48;8.80;99.90
23471;DHT22;11908;50.806;4.424;2023-04-16T06:34:13;8.90;99.90
23471;DHT22;11908;50.806;4.424;2023-04-16T06:36:39;9.00;99.90
23471;DHT22;11908;50.806;4.424;2023-04-16T06:39:05;8.90;99.90
23471;DHT22;11908;50.806;4.424;2023-04-16T06:41:31;8.90;99.90
23471;DHT22;11908;50.806;4.424;2023-04-16T06:43:56;8.90;99.90
23471;DHT22;11908;50.806;4.424;2023-04-16T06:46:22;8.90;99.90
23471;DHT22;11908;50.806;4.424;2023-04-16T06:48:47;8.90;99.90
23471;DHT22;11908;50.806;4.424;2023-04-16T06:51:13;8.90;99.90
23471;DHT22;11908;50.806;4.424;2023-04-16T06:53:39;8.70;99.90
23471;DHT22;11908;50.806;4.424;2023-04-16T06:56:05;8.80;99.90
23471;DHT22;11908;50.806;4.424;2023-04-16T06:58:30;8.70;99.90
23471;DHT22;11908;50.806;4.424;2023-04-16T07:00:57;8.70;99.90
23471;DHT22;11908;50.806;4.424;2023-04-16T07:03:23;8.70;99.90
23471;DHT22;11908;50.806;4.424;2023-04-16T07:05:48;8.60;99.90
23471;DHT22;11908;50.806;4.424;2023-04-16T07:08:14;8.70;99.90
23471;DHT22;11908;50.806;4.424;2023-04-16T07:10:40;8.80;99.90
23471;DHT22;11908;50.806;4.424;2023-04-16T07:13:05;8.90;99.90
23471;DHT22;11908;50.806;4.424;2023-04-16T07:15:31;8.90;99.90
23471;DHT22;11908;50.806;4.424;2023-04-16T07:17:57;8.90;99.90
23471;DHT22;11908;50.806;4.424;2023-04-16T07:20:22;8.90;99.90
23471;DHT22;11908;50.806;4.424;2023-04-16T07:22:48;8.90;99.90
23471;DHT22;11908;50.806;4.424;2023-04-16T07:25:14;8.80;99.90
23471;DHT22;11908;50.806;4.424;2023-04-16T07:27:39;8.90;99.90
23471;DHT22;11908;50.806;4.424;2023-04-16T07:30:06;8.90;99.90
23471;DHT22;11908;50.806;4.424;2023-04-16T07:32:32;9.10;99.90
23471;DHT22;11908;50.806;4.424;2023-04-16T07:34:58;9.10;99.90
23471;DHT22;11908;50.806;4.424;2023-04-16T07:37:23;9.20;99.90
23471;DHT22;11908;50.806;4.424;2023-04-16T07:39:49;9.10;99.90
23471;DHT22;11908;50.806;4.424;2023-04-16T07:42:16;9.20;99.90
23471;DHT22;11908;50.806;4.424;2023-04-16T07:44:42;9.20;99.90
23471;DHT22;11908;50.806;4.424;2023-04-16T07:47:08;9.20;99.90
23471;DHT22;11908;50.806;4.424;2023-04-16T07:49:33;9.20;99.90
23471;DHT22;11908;50.806;4.424;2023-04-16T07:51:59;9.30;99.90
23471;DHT22;11908;50.806;4.424;2023-04-16T07:54:25;9.30;99.90
23471;DHT22;11908;50.806;4.424;2023-04-16T07:56:51;9.40;99.90
23471;DHT22;11908;50.806;4.424;2023-04-16T07:59:16;9.20;99.90
23471;DHT22;11908;50.806;4.424;2023-04-16T08:01:42;9.20;99.90
23471;DHT22;11908;50.806;4.424;2023-04-16T08:04:08;9.30;99.90
23471;DHT22;11908;50.806;4.424;2023-04-16T08:06:33;9.30;99.90
23471;DHT22;11908;50.806;4.424;2023-04-16T08:08:59;9.20;99.90
23471;DHT22;11908;50.806;4.424;2023-04-16T08:11:25;9.20;99.90
23471;DHT22;11908;50.806;4.424;2023-04-16T08:13:50;9.30;99.90
23471;DHT22;11908;50.806;4.424;2023-04-16T08:16:16;9.30;99.90
23471;DHT22;11908;50.806;4.424;2023-04-16T08:18:42;9.40;99.90
23471;DHT22;11908;50.806;4.424;2023-04-16T08:21:07;9.50;99.90
23471;DHT22;11908;50.806;4.424;2023-04-16T08:23:33;9.60;99.90
23471;DHT22;11908;50.806;4.424;2023-04-16T08:26:00;9.60;99.90
23471;DHT22;11908;50.806;4.424;2023-04-16T08:28:26;9.50;99.90
23471;DHT22;11908;50.806;4.424;2023-04-16T08:30:52;9.60;99.90
23471;DHT22;11908;50.806;4.424;2023-04-16T08:33:17;9.50;99.90
23471;DHT22;11908;50.806;4.424;2023-04-16T08:35:43;9.50;99.90
23471;DHT22;11908;50.806;4.424;2023-04-16T08:38:08;9.50;99.90
23471;DHT22;11908;50.806;4.424;2023-04-16T08:40:37;9.40;99.90
23471;DHT22;11908;50.806;4.424;2023-04-16T08:43:08;9.40;99.90
23471;DHT22;11908;50.806;4.424;2023-04-16T08:45:35;9.40;99.90
23471;DHT22;11908;50.806;4.424;2023-04-16T08:48:04;9.50;99.90
23471;DHT22;11908;50.806;4.424;2023-04-16T08:50:32;9.50;99.90
23471;DHT22;11908;50.806;4.424;2023-04-16T08:53:04;9.60;99.90
23471;DHT22;11908;50.806;4.424;2023-04-16T08:55:37;9.60;99.90
23471;DHT22;11908;50.806;4.424;2023-04-16T08:58:08;9.60;99.90
23471;DHT22;11908;50.806;4.424;2023-04-16T09:00:36;9.60;99.90
23471;DHT22;11908;50.806;4.424;2023-04-16T09:03:03;9.50;99.90
23471;DHT22;11908;50.806;4.424;2023-04-16T09:05:30;9.50;99.90
23471;DHT22;11908;50.806;4.424;2023-04-16T09:07:56;9.40;99.90
23471;DHT22;11908;50.806;4.424;2023-04-16T09:10:22;9.50;99.90
23471;DHT22;11908;50.806;4.424;2023-04-16T09:12:49;9.50;99.90
23471;DHT22;11908;50.806;4.424;2023-04-16T09:15:19;9.50;99.90
23471;DHT22;11908;50.806;4.424;2023-04-16T09:17:45;9.50;99.90
23471;DHT22;11908;50.806;4.424;2023-04-16T09:20:11;9.60;99.90
23471;DHT22;11908;50.806;4.424;2023-04-16T09:22:37;9.50;99.90
23471;DHT22;11908;50.806;4.424;2023-04-16T09:25:05;9.50;99.90
23471;DHT22;11908;50.806;4.424;2023-04-16T09:27:31;9.60;99.90
23471;DHT22;11908;50.806;4.424;2023-04-16T09:29:56;9.60;99.90
23471;DHT22;11908;50.806;4.424;2023-04-16T09:32:26;9.60;99.90
23471;DHT22;11908;50.806;4.424;2023-04-16T09:37:24;9.60;99.90
23471;DHT22;11908;50.806;4.424;2023-04-16T09:42:22;9.50;99.90
23471;DHT22;11908;50.806;4.424;2023-04-16T09:44:48;9.40;99.90
23471;DHT22;11908;50.806;4.424;2023-04-16T09:47:14;9.50;99.90
23471;DHT22;11908;50.806;4.424;2023-04-16T09:49:41;9.60;99.90
23471;DHT22;11908;50.806;4.424;2023-04-16T09:52:17;9.70;99.90
23471;DHT22;11908;50.806;4.424;2023-04-16T09:54:52;9.70;99.90
23471;DHT22;11908;50.806;4.424;2023-04-16T09:57:24;9.80;99.90
23471;DHT22;11908;50.806;4.424;2023-04-16T09:59:59;9.80;99.90
23471;DHT22;11908;50.806;4.424;2023-04-16T10:02:29;9.80;99.90
23471;DHT22;11908;50.806;4.424;2023-04-16T10:04:56;9.80;99.90
23471;DHT22;11908;50.806;4.424;2023-04-16T10:07:28;9.80;99.90
23471;DHT22;11908;50.806;4.424;2023-04-16T10:09:54;9.80;99.90
23471;DHT22;11908;50.806;4.424;2023-04-16T10:12:20;9.80;99.90
23471;DHT22;11908;50.806;4.424;2023-04-16T10:14:46;9.90;99.90
23471;DHT22;11908;50.806;4.424;2023-04-16T10:17:12;9.90;99.90
23471;DHT22;11908;50.806;4.424;2023-04-16T10:19:38;9.90;99.90
23471;DHT22;11908;50.806;4.424;2023-04-16T10:22:04;10.00;99.90
23471;DHT22;11908;50.806;4.424;2023-04-16T10:24:32;10.10;99.90
23471;DHT22;11908;50.806;4.424;2023-04-16T10:26:59;10.00;99.90
23471;DHT22;11908;50.806;4.424;2023-04-16T10:29:26;9.90;99.90
23471;DHT22;11908;50.806;4.424;2023-04-16T10:31:53;9.90;99.90
23471;DHT22;11908;50.806;4.424;2023-04-16T10:34:20;9.80;99.90
23471;DHT22;11908;50.806;4.424;2023-04-16T10:36:53;9.80;99.90
23471;DHT22;11908;50.806;4.424;2023-04-16T10:39:27;9.60;99.90
23471;DHT22;11908;50.806;4.424;2023-04-16T10:42:10;9.60;99.90
23471;DHT22;11908;50.806;4.424;2023-04-16T10:44:37;9.60;99.90
23471;DHT22;11908;50.806;4.424;2023-04-16T10:47:09;9.70;99.90
23471;DHT22;11908;50.806;4.424;2023-04-16T10:49:35;9.70;99.90
23471;DHT22;11908;50.806;4.424;2023-04-16T10:52:08;9.70;99.90
23471;DHT22;11908;50.806;4.424;2023-04-16T10:54:35;9.80;99.90
23471;DHT22;11908;50.806;4.424;2023-04-16T10:57:19;9.70;99.90
23471;DHT22;11908;50.806;4.424;2023-04-16T10:59:44;9.70;99.90
23471;DHT22;11908;50.806;4.424;2023-04-16T11:02:15;9.60;99.90
23471;DHT22;11908;50.806;4.424;2023-04-16T11:04:43;9.60;99.90
23471;DHT22;11908;50.806;4.424;2023-04-16T11:09:53;9.70;99.90
23471;DHT22;11908;50.806;4.424;2023-04-16T11:12:36;9.80;99.90
23471;DHT22;11908;50.806;4.424;2023-04-16T11:17:32;9.80;99.90
23471;DHT22;11908;50.806;4.424;2023-04-16T11:19:58;9.80;99.90
23471;DHT22;11908;50.806;4.424;2023-04-16T11:22:24;9.90;99.90
23471;DHT22;11908;50.806;4.424;2023-04-16T11:24:54;10.00;99.90
23471;DHT22;11908;50.806;4.424;2023-04-16T11:27:22;10.00;99.90
23471;DHT22;11908;50.806;4.424;2023-04-16T11:29:56;10.00;99.90
23471;DHT22;11908;50.806;4.424;2023-04-16T11:32:22;9.90;99.90
23471;DHT22;11908;50.806;4.424;2023-04-16T11:34:48;9.90;99.90
23471;DHT22;11908;50.806;4.424;2023-04-16T11:37:14;10.00;99.90
23471;DHT22;11908;50.806;4.424;2023-04-16T11:39:50;10.00;99.90
23471;DHT22;11908;50.806;4.424;2023-04-16T11:42:20;10.10;99.90
23471;DHT22;11908;50.806;4.424;2023-04-16T11:44:51;10.00;99.90
23471;DHT22;11908;50.806;4.424;2023-04-16T11:47:17;10.00;99.90
23471;DHT22;11908;50.806;4.424;2023-04-16T11:49:43;10.10;99.90
23471;DHT22;11908;50.806;4.424;2023-04-16T11:52:09;10.20;99.90
23471;DHT22;11908;50.806;4.424;2023-04-16T11:54:35;10.20;99.90
23471;DHT22;11908;50.806;4.424;2023-04-16T11:57:02;10.30;99.90
23471;DHT22;11908;50.806;4.424;2023-04-16T11:59:30;10.40;99.90
23471;DHT22;11908;50.806;4.424;2023-04-16T12:01:57;10.40;99.90
23471;DHT22;11908;50.806;4.424;2023-04-16T12:04:25;10.40;99.90
23471;DHT22;11908;50.806;4.424;2023-04-16T12:07:10;10.30;99.90
23471;DHT22;11908;50.806;4.424;2023-04-16T12:09:38;10.20;99.90
23471;DHT22;11908;50.806;4.424;2023-04-16T12:12:05;10.20;99.90
23471;DHT22;11908;50.806;4.424;2023-04-16T12:14:31;10.20;99.90
23471;DHT22;11908;50.806;4.424;2023-04-16T12:17:19;10.30;99.90
23471;DHT22;11908;50.806;4.424;2023-04-16T12:19:54;10.30;99.90
23471;DHT22;11908;50.806;4.424;2023-04-16T12:22:33;10.30;99.90
23471;DHT22;11908;50.806;4.424;2023-04-16T12:25:01;10.40;99.90
23471;DHT22;11908;50.806;4.424;2023-04-16T12:27:50;10.60;99.90
23471;DHT22;11908;50.806;4.424;2023-04-16T12:30:21;10.60;99.90
23471;DHT22;11908;50.806;4.424;2023-04-16T12:32:49;10.70;99.90
23471;DHT22;11908;50.806;4.424;2023-04-16T12:35:32;10.80;99.90
23471;DHT22;11908;50.806;4.424;2023-04-16T12:37:59;10.70;99.90
23471;DHT22;11908;50.806;4.424;2023-04-16T12:40:25;10.60;99.90
23471;DHT22;11908;50.806;4.424;2023-04-16T12:42:51;10.60;99.90
23471;DHT22;11908;50.806;4.424;2023-04-16T12:45:17;10.60;99.90
23471;DHT22;11908;50.806;4.424;2023-04-16T12:47:42;10.60;99.90
23471;DHT22;11908;50.806;4.424;2023-04-16T12:50:08;10.60;99.90
23471;DHT22;11908;50.806;4.424;2023-04-16T12:52:34;10.60;99.90
23471;DHT22;11908;50.806;4.424;2023-04-16T12:55:01;10.70;99.90
23471;DHT22;11908;50.806;4.424;2023-04-16T12:57:27;10.70;99.90
23471;DHT22;11908;50.806;4.424;2023-04-16T12:59:54;10.80;99.90
23471;DHT22;11908;50.806;4.424;2023-04-16T13:02:20;10.80;99.90
23471;DHT22;11908;50.806;4.424;2023-04-16T13:04:46;11.00;99.90
23471;DHT22;11908;50.806;4.424;2023-04-16T13:07:12;11.10;99.90
23471;DHT22;11908;50.806;4.424;2023-04-16T13:09:38;11.00;99.90
23471;DHT22;11908;50.806;4.424;2023-04-16T13:12:03;10.90;99.90
23471;DHT22;11908;50.806;4.424;2023-04-16T13:14:29;10.80;99.90
23471;DHT22;11908;50.806;4.424;2023-04-16T13:16:55;10.90;99.90
23471;DHT22;11908;50.806;4.424;2023-04-16T13:19:20;10.90;99.90
23471;DHT22;11908;50.806;4.424;2023-04-16T13:21:46;10.80;99.90
23471;DHT22;11908;50.806;4.424;2023-04-16T13:24:12;10.90;99.90
23471;DHT22;11908;50.806;4.424;2023-04-16T13:26:37;10.90;99.90
23471;DHT22;11908;50.806;4.424;2023-04-16T13:29:03;10.90;99.90
23471;DHT22;11908;50.806;4.424;2023-04-16T13:31:29;10.90;99.90
23471;DHT22;11908;50.806;4.424;2023-04-16T13:33:55;10.90;99.90
23471;DHT22;11908;50.806;4.424;2023-04-16T13:36:20;10.90;99.90
23471;DHT22;11908;50.806;4.424;2023-04-16T13:38:46;11.00;99.90
23471;DHT22;11908;50.806;4.424;2023-04-16T13:41:11;11.00;99.90
23471;DHT22;11908;50.806;4.424;2023-04-16T13:43:37;11.00;99.90
23471;DHT22;11908;50.806;4.424;2023-04-16T13:46:03;11.00;99.90
23471;DHT22;11908;50.806;4.424;2023-04-16T13:48:28;11.10;99.90
23471;DHT22;11908;50.806;4.424;2023-04-16T13:50:54;11.00;99.90
23471;DHT22;11908;50.806;4.424;2023-04-16T13:53:20;11.10;99.90
23471;DHT22;11908;50.806;4.424;2023-04-16T13:55:46;11.20;99.90
23471;DHT22;11908;50.806;4.424;2023-04-16T13:58:14;11.30;99.90
23471;DHT22;11908;50.806;4.424;2023-04-16T14:00:41;11.30;99.90
23471;DHT22;11908;50.806;4.424;2023-04-16T14:03:07;11.30;99.90
23471;DHT22;11908;50.806;4.424;2023-04-16T14:05:32;11.40;99.90
23471;DHT22;11908;50.806;4.424;2023-04-16T14:07:58;11.30;99.90
23471;DHT22;11908;50.806;4.424;2023-04-16T14:10:24;11.30;99.90
23471;DHT22;11908;50.806;4.424;2023-04-16T14:12:49;11.40;99.90
23471;DHT22;11908;50.806;4.424;2023-04-16T14:15:15;11.50;99.90
23471;DHT22;11908;50.806;4.424;2023-04-16T14:17:42;11.60;99.90
23471;DHT22;11908;50.806;4.424;2023-04-16T14:20:12;11.80;99.90
23471;DHT22;11908;50.806;4.424;2023-04-16T14:22:38;11.90;99.90
23471;DHT22;11908;50.806;4.424;2023-04-16T14:25:04;11.90;99.90
23471;DHT22;11908;50.806;4.424;2023-04-16T14:27:31;11.90;99.90
23471;DHT22;11908;50.806;4.424;2023-04-16T14:29:57;11.90;99.90
23471;DHT22;11908;50.806;4.424;2023-04-16T14:32:22;11.80;99.90
23471;DHT22;11908;50.806;4.424;2023-04-16T14:34:48;11.70;99.90
23471;DHT22;11908;50.806;4.424;2023-04-16T14:37:16;11.70;99.90
23471;DHT22;11908;50.806;4.424;2023-04-16T14:39:41;11.90;99.90
23471;DHT22;11908;50.806;4.424;2023-04-16T14:42:07;12.00;99.90
23471;DHT22;11908;50.806;4.424;2023-04-16T14:44:33;12.10;99.90
23471;DHT22;11908;50.806;4.424;2023-04-16T14:46:58;12.30;99.90
23471;DHT22;11908;50.806;4.424;2023-04-16T14:49:24;12.20;99.90
23471;DHT22;11908;50.806;4.424;2023-04-16T14:51:50;12.20;99.90
23471;DHT22;11908;50.806;4.424;2023-04-16T14:54:17;12.20;99.90
23471;DHT22;11908;50.806;4.424;2023-04-16T14:56:44;12.10;99.90
23471;DHT22;11908;50.806;4.424;2023-04-16T14:59:10;12.10;99.90
23471;DHT22;11908;50.806;4.424;2023-04-16T15:01:36;12.10;99.90
23471;DHT22;11908;50.806;4.424;2023-04-16T15:04:04;12.10;99.90
23471;DHT22;11908;50.806;4.424;2023-04-16T15:06:30;12.10;99.90
23471;DHT22;11908;50.806;4.424;2023-04-16T15:08:56;12.00;99.90
23471;DHT22;11908;50.806;4.424;2023-04-16T15:11:22;11.90;99.90
23471;DHT22;11908;50.806;4.424;2023-04-16T15:13:48;11.90;99.90
23471;DHT22;11908;50.806;4.424;2023-04-16T15:16:13;11.80;99.90
23471;DHT22;11908;50.806;4.424;2023-04-16T15:18:39;11.90;99.90
23471;DHT22;11908;50.806;4.424;2023-04-16T15:21:05;11.70;99.90
23471;DHT22;11908;50.806;4.424;2023-04-16T15:23:30;11.60;99.90
23471;DHT22;11908;50.806;4.424;2023-04-16T15:25:56;11.70;99.90
23471;DHT22;11908;50.806;4.424;2023-04-16T15:28:22;11.80;99.90
23471;DHT22;11908;50.806;4.424;2023-04-16T15:30:48;11.80;99.90
23471;DHT22;11908;50.806;4.424;2023-04-16T15:33:13;11.70;99.90
23471;DHT22;11908;50.806;4.424;2023-04-16T15:35:39;11.70;99.90
23471;DHT22;11908;50.806;4.424;2023-04-16T15:38:06;11.60;99.90
23471;DHT22;11908;50.806;4.424;2023-04-16T15:40:32;11.70;99.90
23471;DHT22;11908;50.806;4.424;2023-04-16T15:42:58;11.70;99.90
23471;DHT22;11908;50.806;4.424;2023-04-16T15:45:23;11.60;99.90
23471;DHT22;11908;50.806;4.424;2023-04-16T15:47:49;11.50;99.90
23471;DHT22;11908;50.806;4.424;2023-04-16T15:50:18;11.60;99.90